Time;durP1;ratioP1;P1;durP2;ratioP2;P2;SDS_P1;SDS_P2;PMS_P1;PMS_P2;Temp;Humidity;BMP_temperature;BMP_pressure;BME280_temperature;BME280_humidity;BME280_pressure;Samples;Min_cycle;Max_cycle;Signal;HPM_P1;HPM_P2
2022/09/05 00:01:43;;;;;;;;;2.50;2.50;;;;;23.80;48.34;100745.16;5118176;27;45758;-73
2022/09/05 00:04:20;;;;;;;;;7.00;5.00;;;;;23.72;48.77;100752.13;5116991;27;45367;-74
2022/09/05 00:06:57;;;;;;;;;5.00;5.00;;;;;23.62;48.88;100736.00;5117653;27;45380;-76
2022/09/05 00:09:50;;;;;;;;;3.00;3.00;;;;;23.59;48.34;100744.34;5120312;27;45228;-75
2022/09/05 00:12:17;;;;;;;;;4.75;4.75;;;;;23.55;48.49;100744.78;5119419;27;46245;-76
2022/09/05 00:15:07;;;;;;;;;3.75;3.75;;;;;23.46;48.96;100747.34;5122241;27;45851;-76
2022/09/05 00:17:49;;;;;;;;;2.75;2.75;;;;;23.37;48.99;100750.00;5116749;27;45329;-75
2022/09/05 00:20:41;;;;;;;;;4.00;4.00;;;;;23.33;49.33;100750.28;5117195;27;45330;-74
2022/09/05 00:23:20;;;;;;;;;2.25;2.25;;;;;23.20;49.23;100761.25;5116635;27;45345;-74
2022/09/05 00:26:02;;;;;;;;;3.25;3.25;;;;;23.14;49.65;100761.00;5116851;27;45387;-74
2022/09/05 00:28:55;;;;;;;;;2.00;2.00;;;;;23.09;49.54;100753.34;5100572;27;45347;-77
2022/09/05 00:31:38;;;;;;;;;3.00;3.00;;;;;23.04;50.14;100755.59;5098651;27;45422;-75
2022/09/05 00:34:31;;;;;;;;;0.75;0.75;;;;;22.96;50.10;100759.00;5116312;27;45457;-74
2022/09/05 00:36:56;;;;;;;;;2.25;2.25;;;;;22.89;50.03;100761.38;5116099;27;45411;-76
2022/09/05 00:39:27;;;;;;;;;1.25;1.25;;;;;22.85;50.21;100751.06;5116759;27;45301;-75
2022/09/05 00:42:07;;;;;;;;;2.00;2.00;;;;;22.79;50.48;100739.06;5117126;27;45919;-76
2022/09/05 00:44:46;;;;;;;;;2.00;2.00;;;;;22.75;50.26;100748.34;5117000;27;45367;-75
2022/09/05 00:47:32;;;;;;;;;2.25;2.25;;;;;22.66;50.53;100725.06;5116248;27;45218;-76
2022/09/05 00:50:08;;;;;;;;;2.00;2.00;;;;;22.65;50.58;100728.72;5098126;27;45254;-75
2022/09/05 00:52:46;;;;;;;;;5.75;5.75;;;;;22.61;50.73;100738.84;5117024;27;45216;-78
2022/09/05 00:55:19;;;;;;;;;2.25;2.25;;;;;22.57;50.90;100734.75;5119807;27;46816;-76
2022/09/05 00:58:26;;;;;;;;;3.00;3.00;;;;;22.56;50.59;100746.47;5119370;27;45291;-75
2022/09/05 01:00:54;;;;;;;;;3.00;3.00;;;;;22.48;51.03;100731.06;5119134;27;45457;-78
2022/09/05 01:03:53;;;;;;;;;2.25;2.25;;;;;22.46;51.09;100733.88;5120003;27;45320;-74
2022/09/05 01:06:29;;;;;;;;;3.00;3.00;;;;;22.56;50.79;100751.81;5119448;27;45429;-74
2022/09/05 01:09:37;;;;;;;;;3.00;3.00;;;;;22.58;50.73;100753.38;5101143;27;45364;-75
2022/09/05 01:12:19;;;;;;;;;3.50;3.50;;;;;22.65;50.75;100726.88;5120453;27;45324;-74
2022/09/05 01:15:08;;;;;;;;;2.75;2.75;;;;;22.70;51.44;100724.63;5119820;27;45234;-76
2022/09/05 01:17:36;;;;;;;;;3.00;3.00;;;;;22.73;51.43;100715.47;5100849;27;47154;-75
2022/09/05 01:20:27;;;;;;;;;4.00;4.00;;;;;22.75;53.80;100702.78;5119794;27;45312;-74
2022/09/05 01:23:04;;;;;;;;;3.50;3.50;;;;;22.70;53.32;100708.53;5100458;27;45444;-74
2022/09/05 01:25:33;;;;;;;;;4.00;4.00;;;;;22.70;53.72;100707.69;5119230;27;45414;-75
2022/09/05 01:28:17;;;;;;;;;3.75;3.75;;;;;22.67;53.32;100710.66;5118788;27;46498;-75
2022/09/05 01:30:56;;;;;;;;;3.00;3.00;;;;;22.68;54.33;100733.81;5100314;27;45290;-74
2022/09/05 01:33:47;;;;;;;;;4.00;4.00;;;;;22.66;55.47;100765.25;5119022;27;45423;-75
2022/09/05 01:36:30;;;;;;;;;4.00;4.00;;;;;22.59;56.12;100806.03;5119061;27;45569;-74
2022/09/05 01:39:03;;;;;;;;;2.75;2.75;;;;;22.57;55.51;100809.81;5118933;27;46588;-76
2022/09/05 01:41:53;;;;;;;;;6.50;6.50;;;;;22.54;59.34;100802.91;5118980;27;45366;-75
2022/09/05 01:44:46;;;;;;;;;13.75;12.75;;;;;22.22;68.36;100774.34;5119055;27;45236;-75
2022/09/05 01:47:23;;;;;;;;;8.25;8.25;;;;;21.56;73.30;100749.53;5119522;27;45280;-75
2022/09/05 01:49:58;;;;;;;;;5.75;4.00;;;;;20.92;73.21;100719.13;5118954;27;45461;-75
2022/09/05 01:52:45;;;;;;;;;5.25;5.25;;;;;20.45;74.52;100730.00;5118923;27;45272;-75
2022/09/05 01:55:41;;;;;;;;;5.00;5.00;;;;;20.09;75.08;100721.22;5101306;27;45416;-75
2022/09/05 01:58:15;;;;;;;;;4.50;4.50;;;;;19.82;75.71;100701.03;5123327;27;45366;-76
2022/09/05 02:00:57;;;;;;;;;4.50;4.50;;;;;19.69;76.32;100691.31;5126262;27;45607;-76
2022/09/05 02:03:36;;;;;;;;;5.00;5.00;;;;;19.60;75.57;100685.81;5119314;27;45242;-76
2022/09/05 02:06:22;;;;;;;;;4.75;4.75;;;;;19.61;75.47;100730.22;5118210;27;45447;-75
2022/09/05 02:08:56;;;;;;;;;5.50;5.50;;;;;19.64;74.26;100728.16;5119779;27;45454;-76
2022/09/05 02:11:40;;;;;;;;;4.25;4.25;;;;;19.66;71.74;100720.91;5118958;27;46161;-76
2022/09/05 02:14:20;;;;;;;;;6.00;6.00;;;;;19.68;73.11;100708.28;5118721;27;45240;-76
2022/09/05 02:16:47;;;;;;;;;6.00;6.00;;;;;19.69;74.09;100703.81;5118963;27;45272;-76
2022/09/05 02:19:22;;;;;;;;;5.00;5.00;;;;;19.69;73.37;100706.47;5119124;27;45641;-76
2022/09/05 02:22:07;;;;;;;;;3.00;3.00;;;;;19.70;73.62;100709.03;5099679;27;47540;-76
2022/09/05 02:24:36;;;;;;;;;5.75;5.75;;;;;19.69;74.04;100703.81;5118482;27;45325;-76
2022/09/05 02:27:04;;;;;;;;;4.50;4.50;;;;;19.75;75.97;100710.47;5118901;27;45312;-75
2022/09/05 02:29:36;;;;;;;;;3.75;3.75;;;;;19.79;70.90;100717.28;5119059;27;45620;-75
2022/09/05 02:32:17;;;;;;;;;5.50;5.50;;;;;19.79;71.86;100706.59;5118487;27;46775;-76
2022/09/05 02:35:10;;;;;;;;;6.75;6.75;;;;;19.87;72.03;100717.53;5099873;27;45373;-76
2022/09/05 02:37:41;;;;;;;;;4.00;4.00;;;;;19.92;70.89;100714.56;5118879;27;45314;-75
2022/09/05 02:40:20;;;;;;;;;17.75;17.75;;;;;19.96;71.27;100708.84;5099966;27;45462;-75
2022/09/05 02:42:59;;;;;;;;;6.25;6.25;;;;;19.99;72.60;100711.28;5117814;27;45418;-75
2022/09/05 02:45:38;;;;;;;;;5.25;5.25;;;;;20.04;70.63;100715.41;5117951;27;45383;-75
2022/09/05 02:48:25;;;;;;;;;5.00;5.00;;;;;19.97;70.78;100705.19;5118613;27;45464;-75
2022/09/05 02:50:59;;;;;;;;;4.00;4.00;;;;;20.05;70.34;100714.44;5118006;27;45399;-77
2022/09/05 02:53:26;;;;;;;;;4.50;4.50;;;;;20.01;69.42;100716.50;5117784;27;45568;-76
2022/09/05 02:56:12;;;;;;;;;4.25;4.25;;;;;20.05;69.85;100715.28;5118117;27;45432;-75
2022/09/05 02:58:54;;;;;;;;;3.25;3.25;;;;;20.04;70.08;100728.75;5118232;27;45250;-75
2022/09/05 03:01:41;;;;;;;;;4.00;4.00;;;;;20.03;69.68;100737.72;5116737;27;45246;-75
2022/09/05 03:04:28;;;;;;;;;4.50;4.50;;;;;20.02;69.76;100747.56;5117021;27;45260;-75
2022/09/05 03:07:21;;;;;;;;;6.25;6.25;;;;;19.99;70.64;100756.66;5117532;27;45456;-77
2022/09/05 03:10:09;;;;;;;;;5.00;5.00;;;;;19.97;70.51;100742.59;5117632;27;45384;-76
2022/09/05 03:12:46;;;;;;;;;6.00;6.00;;;;;19.96;71.26;100745.38;5118152;27;45286;-75
2022/09/05 03:15:59;;;;;;;;;4.00;4.00;;;;;19.94;70.87;100745.50;5099187;27;47137;-76
2022/09/05 03:18:49;;;;;;;;;4.25;4.25;;;;;19.94;70.48;100758.00;5061426;27;45431;-76
2022/09/05 03:21:33;;;;;;;;;5.00;5.00;;;;;19.92;70.32;100757.28;5117641;27;45523;-75
2022/09/05 03:24:29;;;;;;;;;5.50;5.50;;;;;19.90;70.29;100762.72;5118267;27;45329;-75
2022/09/05 03:27:15;;;;;;;;;7.50;7.50;;;;;19.90;71.20;100775.22;5117678;27;46271;-76
2022/09/05 03:30:07;;;;;;;;;7.00;7.00;;;;;19.86;70.99;100766.56;5117797;27;45345;-77
2022/09/05 03:33:01;;;;;;;;;6.75;6.75;;;;;19.86;71.30;100774.56;5117813;27;45331;-76
2022/09/05 03:35:32;;;;;;;;;5.25;5.25;;;;;19.84;70.79;100776.50;5095266;27;45436;-76
2022/09/05 03:38:20;;;;;;;;;6.00;6.00;;;;;19.83;70.80;100780.13;5117115;27;46297;-75
2022/09/05 03:41:22;;;;;;;;;6.00;6.00;;;;;19.85;71.62;100778.19;5119465;27;45297;-74
2022/09/05 03:44:04;;;;;;;;;6.75;6.75;;;;;19.84;72.04;100772.03;5098922;27;45264;-75
2022/09/05 03:46:54;;;;;;;;;7.25;7.25;;;;;19.84;71.27;100772.03;5117571;27;45324;-77
2022/09/05 03:49:34;;;;;;;;;7.00;7.00;;;;;19.83;71.06;100770.31;5116917;27;45346;-76
2022/09/05 03:52:19;;;;;;;;;6.25;6.25;;;;;19.84;71.84;100769.34;5116935;27;45445;-76
2022/09/05 03:54:51;;;;;;;;;7.50;7.50;;;;;19.86;73.20;100763.88;5117024;27;45354;-76
2022/09/05 03:58:00;;;;;;;;;8.00;8.00;;;;;19.86;74.03;100774.56;5116881;27;45423;-76
2022/09/05 04:00:36;;;;;;;;;5.75;5.75;;;;;19.85;75.28;100764.84;5036331;28;47491;-75
2022/09/05 04:03:18;;;;;;;;;6.00;6.00;;;;;19.85;74.62;100767.53;5053502;28;45389;-75
2022/09/05 04:06:05;;;;;;;;;6.00;6.00;;;;;19.84;74.63;100757.81;5094979;27;45271;-75
2022/09/05 04:08:36;;;;;;;;;6.00;6.00;;;;;19.84;72.18;100771.16;5117213;27;45382;-76
2022/09/05 04:11:08;;;;;;;;;8.50;8.50;;;;;19.84;71.91;100776.50;5116570;27;46562;-75
2022/09/05 04:13:54;;;;;;;;;12.75;12.75;;;;;19.86;71.98;100777.22;5098145;27;45332;-76
2022/09/05 04:16:26;;;;;;;;;7.25;7.25;;;;;19.82;71.71;100771.28;5116955;27;45355;-75
2022/09/05 04:19:05;;;;;;;;;6.00;6.00;;;;;19.85;71.51;100772.84;5117075;27;45255;-75
2022/09/05 04:21:43;;;;;;;;;14.00;14.00;;;;;19.84;71.38;100766.69;5117405;27;46532;-75
2022/09/05 04:24:12;;;;;;;;;7.00;7.00;;;;;19.85;72.95;100773.72;5117652;27;45463;-76
2022/09/05 04:27:05;;;;;;;;;7.50;7.50;;;;;19.85;73.44;100773.72;5116860;27;45275;-75
2022/09/05 04:29:58;;;;;;;;;6.00;6.00;;;;;19.83;72.57;100772.13;5116689;27;45385;-75
2022/09/05 04:32:29;;;;;;;;;7.25;7.25;;;;;19.82;72.76;100779.31;5116906;27;46377;-76
2022/09/05 04:35:21;;;;;;;;;7.50;7.50;;;;;19.82;73.09;100776.63;5116502;27;45316;-75
2022/09/05 04:38:13;;;;;;;;;7.75;7.50;;;;;19.82;73.09;100771.28;5117384;27;45384;-74
2022/09/05 04:40:44;;;;;;;;;8.00;8.00;;;;;19.82;73.36;100759.75;5116997;27;45458;-75
2022/09/05 04:43:16;;;;;;;;;5.50;5.50;;;;;19.77;72.70;100760.13;5097935;27;47163;-74
2022/09/05 04:45:52;;;;;;;;;8.00;8.00;;;;;19.82;72.75;100773.09;5117385;27;45281;-77
2022/09/05 04:48:25;;;;;;;;;6.50;6.50;;;;;19.80;72.65;100783.91;5118361;27;45218;-75
2022/09/05 04:51:06;;;;;;;;;7.00;7.00;;;;;19.80;73.68;100786.56;5118871;27;45313;-76
2022/09/05 04:53:53;;;;;;;;;9.75;9.75;;;;;19.79;72.76;100784.88;5116646;27;46514;-75
2022/09/05 04:56:25;;;;;;;;;8.00;8.00;;;;;19.84;73.00;100792.50;5116123;27;45419;-75
2022/09/05 04:59:08;;;;;;;;;10.00;9.50;;;;;19.86;72.80;100793.25;5116469;27;45561;-74
2022/09/05 05:01:49;;;;;;;;;6.50;6.50;;;;;19.89;72.30;100803.69;5097974;27;45343;-74
2022/09/05 05:04:19;;;;;;;;;10.00;10.00;;;;;19.88;72.90;100801.16;5116362;27;45707;-76
2022/09/05 05:07:25;;;;;;;;;11.50;11.50;;;;;19.89;73.15;100803.69;5116710;27;45215;-75
2022/09/05 05:10:01;;;;;;;;;10.00;10.00;;;;;19.90;73.24;100797.41;5070801;27;45410;-74
2022/09/05 05:12:51;;;;;;;;;9.00;9.00;;;;;19.89;72.70;100797.50;5117492;27;45537;-76
2022/09/05 05:15:22;;;;;;;;;12.75;12.75;;;;;19.85;73.12;100791.53;5117933;27;46299;-76
2022/09/05 05:18:23;;;;;;;;;10.25;10.25;;;;;19.90;72.55;100792.06;5117498;27;45511;-75
2022/09/05 05:21:02;;;;;;;;;13.00;13.00;;;;;19.90;73.25;100792.06;5062370;27;45393;-76
2022/09/05 05:23:56;;;;;;;;;13.25;13.25;;;;;19.93;73.10;100799.00;5117975;27;45532;-76
2022/09/05 05:26:40;;;;;;;;;9.75;9.75;;;;;19.95;72.57;100800.59;5119583;27;45520;-76
2022/09/05 05:29:17;;;;;;;;;13.00;13.00;;;;;19.97;72.18;100797.81;5120062;27;45322;-77
2022/09/05 05:31:50;;;;;;;;;12.00;11.75;;;;;19.99;71.80;100802.03;5119086;27;45375;-74
2022/09/05 05:34:45;;;;;;;;;10.00;10.00;;;;;20.01;71.94;100799.28;5116816;27;45441;-76
2022/09/05 05:37:28;;;;;;;;;9.00;9.00;;;;;20.04;71.07;100803.50;5107463;27;46347;-76
2022/09/05 05:40:16;;;;;;;;;10.00;10.00;;;;;20.07;71.15;100803.28;5118701;27;45294;-77
2022/09/05 05:42:43;;;;;;;;;11.00;11.00;;;;;20.09;71.23;100804.00;5118919;27;45389;-76
2022/09/05 05:45:31;;;;;;;;;10.00;10.00;;;;;20.12;70.07;100807.31;5119880;27;45631;-74
2022/09/05 05:48:00;;;;;;;;;10.50;10.50;;;;;20.15;69.43;100808.91;5120959;27;46649;-76
2022/09/05 05:50:44;;;;;;;;;71.00;63.33;;;;;20.20;69.84;100814.75;5122369;27;45262;-75
2022/09/05 05:53:36;;;;;;;;;9.00;9.00;;;;;20.25;69.75;100809.88;5119690;27;45249;-77
2022/09/05 05:56:20;;;;;;;;;9.25;9.25;;;;;20.28;69.60;100815.00;5120381;27;45351;-75
2022/09/05 05:59:33;;;;;;;;;8.25;8.25;;;;;20.35;68.38;100825.19;5120507;27;45423;-76
2022/09/05 06:02:38;;;;;;;;;13.25;13.25;;;;;20.41;69.47;100828.22;5046701;27;45479;-74
2022/09/05 06:05:26;;;;;;;;;8.25;8.25;;;;;20.49;68.46;100837.47;5118538;27;45360;-75
2022/09/05 06:08:16;;;;;;;;;15.00;15.00;;;;;20.57;68.51;100843.06;5119150;27;45325;-76
2022/09/05 06:11:00;;;;;;;;;12.50;12.50;;;;;20.62;68.12;100850.72;5099828;27;47396;-76
2022/09/05 06:13:44;;;;;;;;;11.25;9.75;;;;;20.67;67.49;100856.56;5119007;27;45206;-74
2022/09/05 06:16:33;;;;;;;;;9.25;9.25;;;;;20.71;67.33;100858.88;5100184;27;45474;-76
2022/09/05 06:19:14;;;;;;;;;8.50;8.50;;;;;20.76;66.81;100842.47;5118869;27;45279;-76
2022/09/05 06:21:57;;;;;;;;;9.50;9.50;;;;;20.82;66.86;100849.19;5099755;27;47331;-74
2022/09/05 06:24:56;;;;;;;;;11.25;11.25;;;;;20.84;66.76;100853.44;5119565;27;45401;-76
2022/09/05 06:27:44;;;;;;;;;7.50;7.50;;;;;20.78;66.51;100847.69;5119451;27;45286;-76
2022/09/05 06:30:19;;;;;;;;;9.25;9.25;;;;;20.88;66.17;100862.06;5119507;27;45282;-75
2022/09/05 06:33:08;;;;;;;;;8.25;8.25;;;;;20.89;66.61;100874.47;5118946;27;46517;-78
2022/09/05 06:36:05;;;;;;;;;9.75;9.75;;;;;20.92;65.94;100873.34;5118957;27;45294;-75
2022/09/05 06:38:49;;;;;;;;;10.25;10.00;;;;;20.93;65.86;100869.69;5101125;27;45497;-79
2022/09/05 06:41:22;;;;;;;;;8.25;8.25;;;;;20.95;66.04;100889.16;5130427;27;45301;-76
2022/09/05 06:44:16;;;;;;;;;8.00;8.00;;;;;21.00;65.33;100890.50;5122701;27;45381;-77
2022/09/05 06:46:43;;;;;;;;;10.00;10.00;;;;;21.05;65.47;100903.50;5101359;27;45474;-81
2022/09/05 06:49:24;;;;;;;;;7.25;7.25;;;;;21.12;65.13;100904.69;5129719;27;45338;-73
2022/09/05 06:52:14;;;;;;;;;7.25;7.25;;;;;21.22;65.78;100918.19;5140105;27;45406;-80
2022/09/05 06:54:57;;;;;;;;;8.50;8.50;;;;;21.27;64.86;100910.66;5125365;27;46986;-81
2022/09/05 06:57:58;;;;;;;;;7.50;7.50;;;;;21.35;66.41;100923.41;5118789;27;45352;-79
2022/09/05 07:00:36;;;;;;;;;11.25;11.25;;;;;21.53;65.71;100947.00;5124365;27;45479;-77
2022/09/05 07:03:18;;;;;;;;;8.75;8.75;;;;;21.65;65.18;100940.66;5121341;27;45465;-71
2022/09/05 07:05:55;;;;;;;;;8.75;8.75;;;;;21.80;64.17;100957.31;5117657;27;45877;-65
2022/09/05 07:08:46;;;;;;;;;10.00;10.00;;;;;21.96;64.89;100948.84;5118355;27;45373;-73
2022/09/05 07:11:20;;;;;;;;;8.75;8.75;;;;;22.24;63.70;100948.38;5133739;27;45397;-73
2022/09/05 07:13:45;;;;;;;;;8.00;8.00;;;;;22.42;62.95;100932.59;5128421;27;45438;-76
2022/09/05 07:16:19;;;;;;;;;6.25;6.25;;;;;22.65;62.34;100943.19;5123334;27;46041;-73
2022/09/05 07:19:04;;;;;;;;;11.00;11.00;;;;;22.89;61.70;100954.47;5135945;27;45277;-73
2022/09/05 07:21:33;;;;;;;;;6.00;6.00;;;;;23.14;60.82;100948.81;5138396;27;45345;-73
2022/09/05 07:24:11;;;;;;;;;6.00;6.00;;;;;23.32;60.51;100947.22;5138232;27;45447;-72
2022/09/05 07:26:45;;;;;;;;;11.25;11.25;;;;;23.43;59.33;100938.22;5117439;27;46282;-73
2022/09/05 07:29:18;;;;;;;;;10.00;10.00;;;;;23.48;58.98;100940.47;5137700;27;45353;-72
2022/09/05 07:31:47;;;;;;;;;6.00;6.00;;;;;23.62;58.15;100947.28;5138821;27;45338;-76
2022/09/05 07:34:18;;;;;;;;;7.75;7.75;;;;;23.69;57.59;100943.06;5133505;27;45475;-74
2022/09/05 07:36:51;;;;;;;;;10.25;10.25;;;;;23.77;56.95;100945.91;5119759;27;46165;-76
2022/09/05 07:39:23;;;;;;;;;6.25;6.25;;;;;23.84;57.21;100948.88;5127440;27;45295;-74
2022/09/05 07:41:53;;;;;;;;;5.25;5.25;;;;;23.91;56.63;100951.84;5123310;27;45364;-76
2022/09/05 07:44:24;;;;;;;;;8.50;8.50;;;;;23.93;56.96;100937.31;5100608;27;45631;-76
2022/09/05 07:47:07;;;;;;;;;7.75;7.75;;;;;23.98;56.77;100925.28;5119106;27;45457;-77
2022/09/05 07:49:36;;;;;;;;;13.50;13.50;;;;;24.00;57.01;100915.28;5117561;27;45348;-80
2022/09/05 07:52:12;;;;;;;;;8.00;8.00;;;;;24.07;55.58;100925.28;5120953;27;45407;-81
2022/09/05 07:54:40;;;;;;;;;8.25;8.25;;;;;24.05;55.78;100916.53;5129011;27;45547;-81
2022/09/05 07:57:08;;;;;;;;;5.25;5.25;;;;;24.07;55.89;100930.66;5112117;27;46925;-82
2022/09/05 07:59:38;;;;;;;;;9.00;9.00;;;;;24.10;55.43;100917.94;5115873;27;45895;-80
2022/09/05 08:02:08;;;;;;;;;6.00;6.00;;;;;24.14;55.36;100908.59;5134250;27;45448;-78
2022/09/05 08:04:39;;;;;;;;;8.25;8.25;;;;;24.20;55.57;100900.84;5124533;27;44701;-78
2022/09/05 08:07:20;;;;;;;;;8.25;8.25;;;;;24.44;55.06;100922.88;5100606;27;46250;-82
2022/09/05 08:09:50;;;;;;;;;6.00;6.00;;;;;24.58;54.98;100917.03;5121497;27;45554;-80
2022/09/05 08:12:19;;;;;;;;;8.25;8.25;;;;;24.77;54.65;100910.78;5120608;27;45526;-79
2022/09/05 08:14:54;;;;;;;;;8.00;8.00;;;;;24.99;54.37;100911.41;5117942;27;45242;-76
2022/09/05 08:17:24;;;;;;;;;7.50;7.50;;;;;25.22;53.21;100911.03;5116649;27;45481;-79
2022/09/05 08:19:54;;;;;;;;;8.25;7.25;;;;;25.41;52.68;100885.81;5119379;27;45399;-82
2022/09/05 08:22:24;;;;;;;;;7.00;7.00;;;;;25.62;51.90;100898.19;5125334;27;45323;-84
2022/09/05 08:25:16;;;;;;;;;7.50;7.50;;;;;25.93;51.74;100905.88;5104437;27;45544;-83
2022/09/05 08:27:54;;;;;;;;;8.00;8.00;;;;;26.21;51.31;100905.81;5121875;27;45411;-84
2022/09/05 08:30:20;;;;;;;;;6.50;6.50;;;;;26.47;50.45;100907.66;5120934;27;45364;-78
2022/09/05 08:32:58;;;;;;;;;7.00;7.00;;;;;26.72;50.02;100902.44;5118474;27;45467;-80
2022/09/05 08:35:30;;;;;;;;;7.00;7.00;;;;;26.91;48.86;100899.53;5099578;27;45608;-77
2022/09/05 08:37:57;;;;;;;;;6.25;6.25;;;;;27.07;48.45;100900.63;5117904;27;46427;-79
2022/09/05 08:40:28;;;;;;;;;5.50;5.50;;;;;27.26;47.80;100916.53;5117794;27;45343;-79
2022/09/05 08:43:01;;;;;;;;;5.00;5.00;;;;;27.43;47.89;100903.09;5117943;27;45376;-77
2022/09/05 08:45:32;;;;;;;;;7.25;7.25;;;;;27.69;46.76;100908.41;5117622;27;45498;-79
2022/09/05 08:48:33;;;;;;;;;8.25;8.25;;;;;27.87;46.94;100906.56;5116713;27;46297;-81
2022/09/05 08:51:10;;;;;;;;;15.25;14.75;;;;;28.09;46.18;100902.34;5117298;27;45339;-78
2022/09/05 08:54:11;;;;;;;;;7.00;7.00;;;;;28.25;45.39;100913.22;5119866;27;45410;-78
2022/09/05 08:56:55;;;;;;;;;9.00;9.00;;;;;28.23;44.55;100900.84;5118184;27;45342;-78
2022/09/05 08:59:41;;;;;;;;;7.75;7.75;;;;;28.28;44.42;100904.75;5117349;27;46297;-80
2022/09/05 09:02:44;;;;;;;;;6.50;6.50;;;;;28.33;44.66;100912.34;5115999;27;45437;-80
2022/09/05 09:05:35;;;;;;;;;7.50;7.50;;;;;28.34;44.25;100919.44;5116961;27;45370;-77
2022/09/05 09:08:23;;;;;;;;;6.00;6.00;;;;;28.38;43.75;100928.91;5116598;27;45479;-78
2022/09/05 09:11:02;;;;;;;;;10.50;10.50;;;;;28.40;43.02;100934.97;5097887;27;48590;-78
2022/09/05 09:13:54;;;;;;;;;8.00;8.00;;;;;28.33;43.69;100936.69;5116960;27;45347;-77
2022/09/05 09:17:07;;;;;;;;;6.50;6.50;;;;;28.39;43.44;100929.75;5120600;27;45339;-79
2022/09/05 09:19:41;;;;;;;;;6.50;6.50;;;;;28.43;42.18;100937.34;5090281;27;45284;-81
2022/09/05 09:22:27;;;;;;;;;10.75;10.75;;;;;28.48;42.69;100925.16;5121411;27;45301;-78
2022/09/05 09:25:20;;;;;;;;;6.00;6.00;;;;;28.51;42.57;100935.63;5120288;27;45256;-79
2022/09/05 09:28:20;;;;;;;;;6.00;6.00;;;;;28.53;41.17;100936.31;5120297;27;45431;-78
2022/09/05 09:30:55;;;;;;;;;6.75;6.75;;;;;28.61;41.94;100939.00;5119909;27;45445;-77
2022/09/05 09:33:42;;;;;;;;;4.75;4.75;;;;;28.67;40.59;100937.47;5120280;27;46394;-77
2022/09/05 09:36:24;;;;;;;;;4.75;4.75;;;;;28.74;40.65;100937.66;5120764;27;45474;-76
2022/09/05 09:39:09;;;;;;;;;6.75;6.75;;;;;28.85;40.40;100934.59;5102973;27;45197;-77
2022/09/05 09:41:44;;;;;;;;;7.00;7.00;;;;;28.93;39.83;100926.44;5120735;27;45339;-77
2022/09/05 09:44:47;;;;;;;;;5.00;5.00;;;;;28.97;38.13;100932.34;5120239;27;45245;-77
2022/09/05 09:47:13;;;;;;;;;2.75;2.75;;;;;28.92;39.28;100908.53;5120041;27;45401;-76
2022/09/05 09:50:16;;;;;;;;;3.75;3.75;;;;;29.11;39.35;100909.94;5102322;27;45328;-77
2022/09/05 09:52:47;;;;;;;;;7.00;7.00;;;;;29.12;39.54;100910.81;5120358;27;45644;-76
2022/09/05 09:55:13;;;;;;;;;4.75;4.75;;;;;29.15;38.47;100908.56;5121244;27;46257;-77
2022/09/05 09:57:59;;;;;;;;;5.25;5.25;;;;;29.01;38.12;100902.03;5120886;27;45332;-77
2022/09/05 10:00:39;;;;;;;;;5.00;5.00;;;;;28.88;39.26;100904.47;5119862;27;45353;-77
2022/09/05 10:04:02;;;;;;;;;3.00;3.00;;;;;28.91;38.65;100904.13;5119562;27;45393;-77
2022/09/05 10:07:03;;;;;;;;;3.50;3.50;;;;;29.00;39.02;100894.09;5016199;28;45538;-78
2022/09/05 10:09:36;;;;;;;;;3.50;3.50;;;;;29.15;39.05;100886.91;4937749;28;45362;-77
2022/09/05 10:12:39;;;;;;;;;5.50;5.50;;;;;29.29;38.76;100869.06;5096250;27;45456;-77
2022/09/05 10:15:25;;;;;;;;;4.50;4.50;;;;;29.42;38.04;100873.06;5102081;27;45368;-78
2022/09/05 10:18:19;;;;;;;;;5.00;5.00;;;;;29.40;38.95;100864.28;5121164;27;45480;-79
2022/09/05 10:20:57;;;;;;;;;5.25;5.25;;;;;29.37;37.73;100868.19;5124308;27;45133;-82
2022/09/05 10:23:41;;;;;;;;;3.25;3.25;;;;;29.30;36.73;100872.63;5127406;27;45404;-81
2022/09/05 10:26:25;;;;;;;;;5.00;5.00;;;;;29.20;37.39;100866.59;5129642;27;45370;-79
2022/09/05 10:29:13;;;;;;;;;3.75;3.75;;;;;29.14;37.12;100858.13;5135257;27;45404;-79
2022/09/05 10:31:56;;;;;;;;;3.25;3.25;;;;;29.09;37.70;100854.28;5128258;27;45386;-78
2022/09/05 10:34:24;;;;;;;;;8.25;7.50;;;;;29.19;36.93;100862.19;5120102;27;45421;-77
2022/09/05 10:36:58;;;;;;;;;4.75;4.75;;;;;29.21;36.25;100863.69;5119836;27;45632;-78
2022/09/05 10:39:29;;;;;;;;;3.50;3.50;;;;;29.22;35.89;100865.38;5120303;27;45426;-77
2022/09/05 10:42:00;;;;;;;;;3.00;3.00;;;;;29.17;36.16;100856.94;5120351;27;45275;-79
2022/09/05 10:44:31;;;;;;;;;5.25;5.25;;;;;29.17;35.77;100858.81;5101629;27;45361;-77
2022/09/05 10:47:08;;;;;;;;;4.00;4.00;;;;;29.17;37.14;100856.94;5120436;27;45208;-77
2022/09/05 10:49:41;;;;;;;;;2.75;2.75;;;;;29.09;35.91;100836.16;5119790;27;45773;-77
2022/09/05 10:52:12;;;;;;;;;5.00;5.00;;;;;29.13;36.17;100842.06;5119218;27;45379;-79
2022/09/05 10:55:05;;;;;;;;;3.25;3.25;;;;;29.15;35.22;100840.84;5119422;27;45223;-76
2022/09/05 10:57:49;;;;;;;;;3.50;3.50;;;;;29.15;35.32;100846.28;5120506;27;45275;-77
2022/09/05 11:00:46;;;;;;;;;3.25;3.25;;;;;29.18;35.29;100842.38;5118666;27;45361;-77
2022/09/05 11:03:17;;;;;;;;;4.00;4.00;;;;;29.27;35.19;100838.59;5099378;27;45306;-78
2022/09/05 11:05:55;;;;;;;;;4.00;4.00;;;;;29.40;35.45;100834.47;5118372;27;45310;-77
2022/09/05 11:08:41;;;;;;;;;4.75;4.75;;;;;29.53;35.73;100833.91;5119918;27;45415;-77
2022/09/05 11:11:17;;;;;;;;;3.25;3.25;;;;;29.61;35.45;100831.13;5122073;27;46832;-82
2022/09/05 11:13:44;;;;;;;;;4.00;4.00;;;;;29.63;34.82;100829.06;5122210;27;45459;-83
2022/09/05 11:16:43;;;;;;;;;5.00;5.00;;;;;29.65;34.50;100835.16;5124598;27;45431;-80
2022/09/05 11:19:23;;;;;;;;;4.75;4.75;;;;;29.65;34.75;100837.00;5103391;27;45403;-83
2022/09/05 11:22:05;;;;;;;;;4.00;4.00;;;;;29.60;34.80;100832.16;5122794;27;45287;-82
2022/09/05 11:24:37;;;;;;;;;3.75;3.75;;;;;29.57;34.78;100829.78;5123497;27;45432;-82
2022/09/05 11:27:20;;;;;;;;;3.75;3.75;;;;;29.55;34.80;100832.66;5122574;27;45295;-84
2022/09/05 11:29:54;;;;;;;;;6.75;6.75;;;;;29.61;35.17;100831.13;5123084;27;45181;-78
2022/09/05 11:32:56;;;;;;;;;4.75;4.75;;;;;29.71;34.41;100837.13;5104646;27;46888;-79
2022/09/05 11:35:21;;;;;;;;;2.75;2.75;;;;;29.74;34.34;100827.81;5125772;27;45292;-80
2022/09/05 11:38:08;;;;;;;;;2.50;2.50;;;;;29.66;33.26;100811.59;5127393;27;45304;-79
2022/09/05 11:40:55;;;;;;;;;3.50;3.50;;;;;29.68;33.20;100826.66;5130292;27;45117;-77
2022/09/05 11:43:54;;;;;;;;;3.00;3.00;;;;;29.62;34.26;100821.97;5123602;27;45273;-78
2022/09/05 11:46:19;;;;;;;;;4.50;4.50;;;;;29.71;34.03;100811.91;5106176;27;45408;-79
2022/09/05 11:49:04;;;;;;;;;2.50;2.50;;;;;29.87;34.06;100816.31;5125291;27;45377;-81
2022/09/05 11:51:32;;;;;;;;;4.00;4.00;;;;;29.91;33.36;100814.09;5124738;27;45321;-79
2022/09/05 11:54:08;;;;;;;;;3.50;3.50;;;;;29.90;34.06;100815.13;5124332;27;45366;-78
2022/09/05 11:56:42;;;;;;;;;3.25;3.25;;;;;29.83;33.74;100813.16;5108223;27;45569;-77
2022/09/05 11:59:27;;;;;;;;;6.50;6.50;;;;;29.81;33.96;100807.06;5125511;27;45185;-82
2022/09/05 12:02:42;;;;;;;;;5.75;5.75;;;;;29.86;33.95;100804.66;5123537;27;45250;-83
2022/09/05 12:05:29;;;;;;;;;3.75;3.75;;;;;29.95;33.65;100804.56;5104017;27;46203;-78
2022/09/05 12:08:25;;;;;;;;;3.25;3.25;;;;;29.99;33.30;100801.31;5122112;27;45295;-80
2022/09/05 12:11:12;;;;;;;;;3.00;3.00;;;;;29.96;33.30;100789.97;5123261;27;45237;-79
2022/09/05 12:13:51;;;;;;;;;3.00;3.00;;;;;29.92;33.38;100783.25;5104466;27;45528;-79
2022/09/05 12:16:21;;;;;;;;;4.00;4.00;;;;;29.87;32.84;100771.09;5123340;27;45338;-86
2022/09/05 12:19:08;;;;;;;;;3.00;3.00;;;;;29.98;32.79;100782.50;5123710;27;45455;-78
2022/09/05 12:22:03;;;;;;;;;5.00;5.00;;;;;30.05;33.09;100774.47;5122791;27;45367;-80
2022/09/05 12:24:55;;;;;;;;;20.00;20.00;;;;;30.12;32.74;100780.84;5120313;27;45832;-81
2022/09/05 12:27:24;;;;;;;;;5.25;5.25;;;;;30.04;32.68;100768.22;5120697;27;46389;-77
2022/09/05 12:29:56;;;;;;;;;3.00;3.00;;;;;30.11;32.70;100766.47;5126325;27;44782;-82
2022/09/05 12:32:24;;;;;;;;;5.00;5.00;;;;;30.14;32.46;100763.38;5128318;27;45429;-78